createdAt,value
2019-04-06T00:01:14.944Z,26.77
2019-04-06T00:03:42.379Z,28.00
2019-04-06T00:06:09.899Z,27.87
2019-04-06T00:08:37.369Z,27.30
2019-04-06T00:11:04.831Z,28.17
2019-04-06T00:13:32.301Z,28.23
2019-04-06T00:15:59.712Z,26.93
2019-04-06T00:18:27.161Z,29.07
2019-04-06T00:20:54.597Z,27.53
2019-04-06T00:23:22.473Z,26.20
2019-04-06T00:25:49.945Z,26.87
2019-04-06T00:28:17.380Z,24.10
2019-04-06T00:30:57.783Z,28.03
2019-04-06T00:33:25.354Z,26.90
2019-04-06T00:35:52.796Z,26.83
2019-04-06T00:38:20.321Z,27.07
2019-04-06T00:40:47.737Z,27.27
2019-04-06T00:43:15.221Z,25.93
2019-04-06T00:45:42.642Z,25.97
2019-04-06T00:48:10.111Z,27.20
2019-04-06T00:50:37.550Z,26.73
2019-04-06T00:53:05.048Z,26.37
2019-04-06T00:55:32.530Z,26.63
2019-04-06T00:57:59.958Z,25.50
2019-04-06T01:00:27.404Z,27.50
2019-04-06T01:02:54.850Z,26.23
2019-04-06T01:05:22.358Z,26.60
2019-04-06T01:07:49.779Z,24.43
2019-04-06T01:10:18.848Z,24.07
2019-04-06T01:12:46.297Z,22.20
2019-04-06T01:15:13.849Z,23.17
2019-04-06T01:17:41.322Z,22.20
2019-04-06T01:20:09.114Z,22.37
2019-04-06T01:22:36.517Z,23.63
2019-04-06T01:25:04.646Z,22.00
2019-04-06T01:27:32.086Z,24.30
2019-04-06T01:29:59.833Z,23.40
2019-04-06T01:32:27.256Z,22.87
2019-04-06T01:34:54.698Z,24.67
2019-04-06T01:37:22.183Z,22.37
2019-04-06T01:39:49.533Z,23.53
2019-04-06T01:42:16.958Z,23.93
2019-04-06T01:44:44.451Z,23.53
2019-04-06T01:47:11.908Z,23.90
2019-04-06T01:49:39.330Z,22.27
2019-04-06T01:52:06.777Z,22.63
2019-04-06T01:54:34.243Z,23.43
2019-04-06T01:57:01.714Z,23.60
2019-04-06T01:59:29.159Z,21.37
2019-04-06T02:02:04.749Z,22.37
2019-04-06T02:04:32.323Z,21.43
2019-04-06T02:06:59.742Z,21.97
2019-04-06T02:09:27.152Z,23.50
2019-04-06T02:11:54.621Z,23.20
2019-04-06T02:14:22.059Z,22.60
2019-04-06T02:16:49.488Z,24.77
2019-04-06T02:19:16.994Z,26.10
2019-04-06T02:21:44.462Z,25.43
2019-04-06T02:24:11.914Z,25.63
2019-04-06T02:26:39.627Z,27.03
2019-04-06T02:29:07.066Z,25.73
2019-04-06T02:31:52.366Z,27.17
2019-04-06T02:34:30.800Z,27.23
2019-04-06T02:37:30.278Z,26.83
2019-04-06T02:40:26.145Z,27.67
2019-04-06T02:43:00.427Z,27.33
2019-04-06T02:45:27.868Z,28.83
2019-04-06T02:47:55.376Z,29.03
2019-04-06T02:50:22.843Z,29.00
2019-04-06T02:52:50.245Z,29.60
2019-04-06T02:55:17.664Z,28.50
2019-04-06T02:57:45.137Z,27.90
2019-04-06T03:00:12.792Z,30.47
2019-04-06T03:02:40.376Z,29.37
2019-04-06T03:05:07.965Z,28.23
2019-04-06T03:07:35.400Z,29.60
2019-04-06T03:10:03.014Z,28.97
2019-04-06T03:12:30.541Z,29.73
2019-04-06T03:14:58.124Z,31.13
2019-04-06T03:17:25.742Z,28.30
2019-04-06T03:19:53.387Z,29.13
2019-04-06T03:22:20.830Z,27.20
2019-04-06T03:24:48.278Z,26.83
2019-04-06T03:27:15.704Z,26.47
2019-04-06T03:29:56.491Z,24.33
2019-04-06T03:32:12.425Z,24.23
2019-04-06T03:34:39.848Z,24.47
2019-04-06T03:37:07.467Z,23.63
2019-04-06T03:39:34.921Z,24.87
2019-04-06T03:42:02.397Z,24.67
2019-04-06T03:44:29.835Z,23.93
2019-04-06T03:46:57.661Z,24.67
2019-04-06T03:49:27.468Z,24.60
2019-04-06T03:51:55.190Z,24.40
2019-04-06T03:54:22.628Z,24.93
2019-04-06T03:56:50.089Z,24.70
2019-04-06T03:59:17.523Z,25.80
2019-04-06T04:01:45.193Z,25.70
2019-04-06T04:04:12.616Z,25.77
2019-04-06T04:06:40.385Z,25.67
2019-04-06T04:09:07.793Z,25.37
2019-04-06T04:11:35.235Z,24.90
2019-04-06T04:14:02.677Z,25.90
2019-04-06T04:16:30.126Z,27.40
2019-04-06T04:18:57.574Z,24.47
2019-04-06T04:21:24.990Z,25.13
2019-04-06T04:23:52.485Z,23.43
2019-04-06T04:26:19.889Z,23.87
2019-04-06T04:28:47.316Z,23.33
2019-04-06T04:31:15.079Z,23.90
2019-04-06T04:33:42.714Z,23.53
2019-04-06T04:36:10.252Z,23.90
2019-04-06T04:38:37.709Z,24.37
2019-04-06T04:41:05.314Z,24.67
2019-04-06T04:43:32.795Z,24.23
2019-04-06T04:46:00.271Z,22.50
2019-04-06T04:48:27.681Z,24.13
2019-04-06T04:50:55.144Z,22.67
2019-04-06T04:53:22.598Z,24.47
2019-04-06T04:55:50.025Z,23.97
2019-04-06T04:58:17.439Z,24.73
2019-04-06T05:00:44.918Z,24.47
2019-04-06T05:03:12.313Z,24.07
2019-04-06T05:05:39.787Z,22.47
2019-04-06T05:08:07.248Z,22.30
2019-04-06T05:10:34.702Z,23.57
2019-04-06T05:13:02.132Z,23.13
2019-04-06T05:16:20.875Z,23.67
2019-04-06T05:18:48.337Z,25.10
2019-04-06T05:21:15.782Z,23.70
2019-04-06T05:23:43.256Z,25.60
2019-04-06T05:26:10.715Z,23.37
2019-04-06T05:28:38.166Z,25.37
2019-04-06T05:31:05.679Z,25.70
2019-04-06T05:33:33.135Z,27.13
2019-04-06T05:36:00.760Z,26.43
2019-04-06T05:38:28.127Z,26.47
2019-04-06T05:40:55.558Z,25.17
2019-04-06T05:43:23.022Z,25.37
2019-04-06T05:45:50.487Z,27.03
2019-04-06T05:48:19.150Z,25.10
2019-04-06T05:50:47.547Z,24.97
2019-04-06T05:53:14.963Z,25.93
2019-04-06T05:55:42.586Z,24.63
2019-04-06T05:58:10.845Z,23.97
2019-04-06T06:00:40.612Z,24.47
2019-04-06T06:03:10.170Z,25.30
2019-04-06T06:05:40.251Z,24.20
2019-04-06T06:08:06.195Z,23.40
2019-04-06T06:10:33.731Z,25.97
2019-04-06T06:13:12.643Z,25.43
2019-04-06T06:15:40.446Z,24.97
2019-04-06T06:18:08.016Z,23.50
2019-04-06T06:20:35.648Z,23.50
2019-04-06T06:23:03.358Z,23.63
2019-04-06T06:25:31.189Z,24.77
2019-04-06T06:27:58.733Z,24.00
2019-04-06T06:30:26.357Z,23.42
2019-04-06T06:32:53.992Z,23.22
2019-04-06T06:35:23.759Z,24.05
2019-04-06T06:37:51.743Z,24.65
2019-04-06T06:40:19.209Z,23.60
2019-04-06T06:42:46.647Z,23.02
2019-04-06T06:45:14.137Z,22.60
2019-04-06T06:47:41.623Z,23.75
2019-04-06T06:50:09.080Z,23.42
2019-04-06T06:52:36.522Z,23.62
2019-04-06T06:55:04.857Z,23.35
2019-04-06T06:57:32.347Z,24.23
2019-04-06T06:59:59.778Z,23.60
2019-04-06T07:02:27.241Z,23.57
2019-04-06T07:04:54.757Z,24.20
2019-04-06T07:07:22.183Z,24.47
2019-04-06T07:09:50.238Z,23.77
2019-04-06T07:12:18.115Z,24.80
2019-04-06T07:14:45.550Z,24.63
2019-04-06T07:17:13.176Z,24.18
2019-04-06T07:19:40.639Z,24.25
2019-04-06T07:22:08.092Z,24.23
2019-04-06T07:24:35.590Z,23.45
2019-04-06T07:27:03.161Z,21.85
2019-04-06T07:29:30.633Z,23.85
2019-04-06T07:31:58.210Z,23.67
2019-04-06T07:34:25.723Z,22.95
2019-04-06T07:36:53.324Z,22.40
2019-04-06T07:39:20.878Z,24.12
2019-04-06T07:41:48.398Z,24.25
2019-04-06T07:44:15.794Z,24.95
2019-04-06T07:46:43.258Z,23.32
2019-04-06T07:49:10.740Z,23.67
2019-04-06T07:51:38.237Z,24.67
2019-04-06T07:54:05.678Z,24.40
2019-04-06T07:56:33.301Z,22.93
2019-04-06T07:59:00.928Z,24.02
2019-04-06T08:01:28.366Z,24.40
2019-04-06T08:03:55.909Z,24.10
2019-04-06T08:06:23.287Z,24.10
2019-04-06T08:08:50.735Z,24.98
2019-04-06T08:11:18.158Z,23.98
2019-04-06T08:13:45.632Z,23.47
2019-04-06T08:16:13.166Z,23.50
2019-04-06T08:18:40.567Z,24.43
2019-04-06T08:21:07.983Z,24.47
2019-04-06T08:23:35.466Z,24.67
2019-04-06T08:26:03.199Z,25.37
2019-04-06T08:28:30.701Z,25.60
2019-04-06T08:31:05.385Z,25.32
2019-04-06T08:33:32.937Z,24.60
2019-04-06T08:36:00.375Z,25.02
2019-04-06T08:38:30.050Z,24.60
2019-04-06T08:40:57.691Z,24.67
2019-04-06T08:43:25.589Z,23.60
2019-04-06T08:45:53.004Z,24.27
2019-04-06T08:48:20.669Z,26.12
2019-04-06T08:50:48.150Z,25.30
2019-04-06T08:53:15.638Z,24.23
2019-04-06T08:55:43.083Z,25.32
2019-04-06T08:58:10.501Z,24.92
2019-04-06T09:00:38.038Z,24.32
2019-04-06T09:03:05.503Z,24.57
2019-04-06T09:05:32.958Z,26.37
2019-04-06T09:08:00.421Z,24.98
2019-04-06T09:10:27.988Z,27.00
2019-04-06T09:12:55.472Z,25.80
2019-04-06T09:15:22.901Z,29.10
2019-04-06T09:17:54.236Z,29.90
2019-04-06T09:20:23.715Z,31.45
2019-04-06T09:22:51.295Z,31.95
2019-04-06T09:25:18.721Z,31.85
2019-04-06T09:27:46.624Z,30.92
2019-04-06T09:30:14.562Z,31.73
2019-04-06T09:32:42.452Z,31.77
2019-04-06T09:35:10.180Z,30.97
2019-04-06T09:37:37.644Z,31.20
2019-04-06T09:40:05.471Z,31.07
2019-04-06T09:42:32.897Z,31.35
2019-04-06T09:45:11.878Z,29.75
2019-04-06T09:47:48.915Z,30.32
2019-04-06T09:50:26.667Z,28.40
2019-04-06T09:53:08.424Z,27.93
2019-04-06T09:55:58.115Z,28.42
2019-04-06T09:58:33.725Z,26.65
2019-04-06T10:01:14.268Z,28.12
2019-04-06T10:04:07.539Z,25.32
2019-04-06T10:06:45.035Z,25.68
2019-04-06T10:09:34.850Z,24.55
2019-04-06T10:12:22.811Z,25.97
2019-04-06T10:15:12.726Z,25.35
2019-04-06T10:17:59.898Z,25.00
2019-04-06T10:20:58.680Z,21.77
2019-04-06T10:23:48.482Z,22.22
2019-04-06T10:26:36.200Z,21.90
2019-04-06T10:29:18.264Z,20.08
2019-04-06T10:32:14.651Z,16.90
2019-04-06T10:35:00.710Z,17.20
2019-04-06T10:37:37.189Z,18.50
2019-04-06T10:40:26.960Z,17.62
2019-04-06T10:43:12.639Z,16.93
2019-04-06T10:46:02.442Z,16.05
2019-04-06T10:48:37.123Z,14.33
2019-04-06T10:51:12.238Z,14.65
2019-04-06T10:54:04.489Z,15.20
2019-04-06T10:56:41.158Z,15.78
2019-04-06T10:59:30.879Z,17.85
2019-04-06T11:02:18.079Z,17.70
2019-04-06T11:05:20.310Z,16.35
2019-04-06T11:07:52.740Z,19.05
2019-04-06T11:10:39.901Z,19.32
2019-04-06T11:13:25.446Z,18.82
2019-04-06T11:16:15.761Z,20.40
2019-04-06T11:19:00.963Z,18.82
2019-04-06T11:21:37.896Z,18.85
2019-04-06T11:24:31.127Z,19.23
2019-04-06T11:27:24.211Z,16.02
2019-04-06T11:30:12.796Z,15.85
2019-04-06T11:32:59.893Z,16.87
2019-04-06T11:35:39.264Z,15.83
2019-04-06T11:38:32.222Z,14.95
2019-04-06T11:41:19.128Z,14.03
2019-04-06T11:44:01.802Z,13.25
2019-04-06T11:46:43.360Z,13.55
2019-04-06T11:49:31.641Z,11.57
2019-04-06T11:52:21.347Z,12.73
2019-04-06T11:55:07.264Z,11.35
2019-04-06T11:57:54.228Z,11.08
2019-04-06T12:00:39.872Z,11.83
2019-04-06T12:03:32.607Z,10.93
2019-04-06T12:06:18.097Z,11.15
2019-04-06T12:08:54.764Z,11.12
2019-04-06T12:11:41.656Z,12.35
2019-04-06T12:14:37.645Z,11.83
2019-04-06T12:17:23.218Z,11.45
2019-04-06T12:20:08.468Z,11.50
2019-04-06T12:23:04.610Z,10.72
2019-04-06T12:25:51.532Z,12.55
2019-04-06T12:28:32.811Z,11.65
2019-04-06T12:31:20.106Z,13.10
2019-04-06T12:34:05.303Z,12.47
2019-04-06T12:36:45.373Z,12.47
2019-04-06T12:39:21.565Z,11.70
2019-04-06T12:42:23.390Z,11.57
2019-04-06T12:45:16.268Z,12.25
2019-04-06T12:48:03.294Z,11.85
2019-04-06T12:50:50.496Z,12.43
2019-04-06T12:53:29.139Z,12.53
2019-04-06T12:56:11.574Z,12.90
2019-04-06T12:58:47.348Z,13.43
2019-04-06T13:01:43.300Z,13.20
2019-04-06T13:04:27.719Z,12.70
2019-04-06T13:07:11.746Z,13.43
2019-04-06T13:10:04.810Z,13.60
2019-04-06T13:12:54.657Z,13.08
2019-04-06T13:15:28.198Z,13.38
2019-04-06T13:18:10.685Z,13.22
2019-04-06T13:20:55.431Z,14.38
2019-04-06T13:23:54.394Z,13.68
2019-04-06T13:26:40.109Z,13.95
2019-04-06T13:29:16.568Z,13.05
2019-04-06T13:32:03.574Z,12.60
2019-04-06T13:34:42.665Z,12.98
2019-04-06T13:37:24.894Z,12.65
2019-04-06T13:40:13.839Z,13.05
2019-04-06T13:42:59.751Z,12.40
2019-04-06T13:45:35.820Z,11.93
2019-04-06T13:48:12.389Z,12.63
2019-04-06T13:50:48.411Z,12.43
2019-04-06T13:53:22.347Z,12.63
2019-04-06T13:56:05.677Z,11.95
2019-04-06T13:58:38.047Z,12.43
2019-04-06T14:01:27.282Z,10.95
2019-04-06T14:04:23.419Z,10.38
2019-04-06T14:06:59.143Z,9.93
2019-04-06T14:09:51.612Z,9.80
2019-04-06T14:12:37.136Z,10.48
2019-04-06T14:15:22.653Z,9.90
2019-04-06T14:18:15.914Z,10.43
2019-04-06T14:21:01.660Z,9.70
2019-04-06T14:23:55.183Z,10.23
2019-04-06T14:26:32.536Z,10.50
2019-04-06T14:29:22.649Z,10.82
2019-04-06T14:31:59.503Z,10.38
2019-04-06T14:35:04.532Z,10.32
2019-04-06T14:37:54.591Z,11.75
2019-04-06T14:40:50.343Z,10.93
2019-04-06T14:43:35.851Z,9.90
2019-04-06T14:46:13.211Z,10.80
2019-04-06T14:49:27.612Z,10.88
2019-04-06T14:52:09.757Z,10.55
2019-04-06T14:54:53.406Z,10.88
2019-04-06T14:57:43.148Z,10.15
2019-04-06T15:00:28.626Z,10.43
2019-04-06T15:03:15.948Z,10.63
2019-04-06T15:06:05.701Z,11.55
2019-04-06T15:08:50.411Z,10.58
2019-04-06T15:11:31.443Z,10.50
2019-04-06T15:14:24.491Z,11.08
2019-04-06T15:17:00.710Z,10.43
2019-04-06T15:19:35.673Z,10.40
2019-04-06T15:22:11.919Z,10.23
2019-04-06T15:24:57.760Z,10.80
2019-04-06T15:27:53.629Z,10.40
2019-04-06T15:30:48.547Z,10.93
2019-04-06T15:33:31.497Z,11.22
2019-04-06T15:36:08.095Z,9.95
2019-04-06T15:38:47.426Z,9.80
2019-04-06T15:41:56.116Z,9.55
2019-04-06T15:44:47.219Z,9.75
2019-04-06T15:47:32.797Z,10.50
2019-04-06T15:50:18.977Z,10.40
2019-04-06T15:53:18.413Z,9.95
2019-04-06T15:56:14.757Z,10.78
2019-04-06T15:58:51.442Z,10.00
2019-04-06T16:01:29.103Z,10.18
2019-04-06T16:04:40.813Z,10.50
2019-04-06T16:07:29.711Z,10.08
2019-04-06T16:10:21.239Z,10.48
2019-04-06T16:13:05.386Z,10.18
2019-04-06T16:16:01.654Z,10.38
2019-04-06T16:18:51.369Z,10.75
2019-04-06T16:21:29.672Z,9.73
2019-04-06T16:24:06.853Z,9.70
2019-04-06T16:26:51.907Z,10.58
2019-04-06T16:29:45.082Z,10.93
2019-04-06T16:32:33.377Z,9.50
2019-04-06T16:35:32.138Z,10.28
2019-04-06T16:38:15.922Z,10.25
2019-04-06T16:41:21.230Z,9.90
2019-04-06T16:44:00.571Z,9.83
2019-04-06T16:46:56.553Z,10.63
2019-04-06T16:49:55.609Z,10.55
2019-04-06T16:52:47.092Z,10.10
2019-04-06T16:55:39.880Z,9.73
2019-04-06T16:58:25.408Z,9.95
2019-04-06T17:01:02.022Z,9.93
2019-04-06T17:04:04.694Z,9.65
2019-04-06T17:06:52.197Z,9.50
2019-04-06T17:09:39.276Z,9.50
2019-04-06T17:12:26.891Z,9.30
2019-04-06T17:15:05.267Z,9.60
2019-04-06T17:18:04.723Z,10.20
2019-04-06T17:20:54.408Z,10.00
2019-04-06T17:23:45.536Z,11.25
2019-04-06T17:26:51.153Z,9.60
2019-04-06T17:29:25.769Z,10.45
2019-04-06T17:32:01.996Z,10.90
2019-04-06T17:34:34.977Z,10.45
2019-04-06T17:37:27.828Z,9.45
2019-04-06T17:40:12.920Z,9.83
2019-04-06T17:43:18.235Z,10.75
2019-04-06T17:46:24.125Z,10.55
2019-04-06T17:49:10.094Z,10.48
2019-04-06T17:51:56.437Z,10.25
2019-04-06T17:54:33.732Z,11.15
2019-04-06T17:57:08.557Z,9.73
2019-04-06T18:00:07.914Z,10.85
2019-04-06T18:03:04.772Z,10.05
2019-04-06T18:05:48.399Z,10.72
2019-04-06T18:08:34.742Z,11.43
2019-04-06T18:11:27.614Z,11.10
2019-04-06T18:13:55.407Z,10.90
2019-04-06T18:16:25.749Z,10.60
2019-04-06T18:18:53.614Z,11.22
2019-04-06T18:21:23.528Z,11.63
2019-04-06T18:23:51.106Z,11.85
2019-04-06T18:26:19.236Z,11.45
2019-04-06T18:28:46.882Z,11.38
2019-04-06T18:31:33.975Z,11.70
2019-04-06T18:34:01.537Z,11.53
2019-04-06T18:36:44.537Z,12.25
2019-04-06T18:39:11.966Z,12.73
2019-04-06T18:41:39.736Z,11.75
2019-04-06T18:44:07.291Z,12.70
2019-04-06T18:46:34.774Z,11.88
2019-04-06T18:49:02.209Z,12.60
2019-04-06T18:51:29.660Z,12.50
2019-04-06T18:53:57.327Z,12.68
2019-04-06T18:56:25.442Z,12.75
2019-04-06T18:58:52.946Z,12.18
2019-04-06T19:01:20.761Z,13.08
2019-04-06T19:03:48.689Z,12.75
2019-04-06T19:06:17.855Z,13.50
2019-04-06T19:08:45.702Z,13.48
2019-04-06T19:11:13.145Z,13.48
2019-04-06T19:13:40.781Z,14.07
2019-04-06T19:16:08.415Z,14.60
2019-04-06T19:18:36.256Z,14.18
2019-04-06T19:21:03.980Z,15.30
2019-04-06T19:23:31.494Z,15.45
2019-04-06T19:25:59.073Z,14.90
2019-04-06T19:28:46.921Z,13.88
2019-04-06T19:31:15.039Z,14.18
2019-04-06T19:33:43.071Z,15.10
2019-04-06T19:36:10.730Z,14.43
2019-04-06T19:38:38.169Z,15.60
2019-04-06T19:41:05.592Z,14.85
2019-04-06T19:43:33.427Z,14.23
2019-04-06T19:46:00.850Z,14.50
2019-04-06T19:48:28.500Z,14.80
2019-04-06T19:50:55.965Z,14.35
2019-04-06T19:53:24.430Z,14.78
2019-04-06T19:55:52.062Z,14.47
2019-04-06T19:58:19.519Z,14.43
2019-04-06T20:00:47.045Z,14.93
2019-04-06T20:03:14.549Z,15.78
2019-04-06T20:05:42.384Z,14.38
2019-04-06T20:08:10.058Z,14.90
2019-04-06T20:10:37.830Z,15.43
2019-04-06T20:13:05.339Z,15.23
2019-04-06T20:15:33.551Z,15.30
2019-04-06T20:18:01.569Z,17.85
2019-04-06T20:20:29.030Z,20.05
2019-04-06T20:22:56.916Z,17.05
2019-04-06T20:25:24.378Z,16.87
2019-04-06T20:27:52.220Z,17.07
2019-04-06T20:30:19.999Z,16.80
2019-04-06T20:32:48.407Z,17.48
2019-04-06T20:35:16.694Z,16.90
2019-04-06T20:37:44.206Z,17.30
2019-04-06T20:40:12.233Z,16.85
2019-04-06T20:42:39.794Z,16.87
2019-04-06T20:45:08.102Z,17.37
2019-04-06T20:47:36.467Z,16.60
2019-04-06T20:50:05.027Z,17.52
2019-04-06T20:52:32.737Z,16.85
2019-04-06T20:55:00.174Z,18.30
2019-04-06T20:57:28.370Z,17.15
2019-04-06T20:59:56.122Z,17.45
2019-04-06T21:02:23.562Z,18.87
2019-04-06T21:04:51.321Z,18.92
2019-04-06T21:07:18.846Z,20.37
2019-04-06T21:09:46.310Z,21.07
2019-04-06T21:12:13.733Z,20.00
2019-04-06T21:14:41.522Z,20.17
2019-04-06T21:17:09.443Z,21.37
2019-04-06T21:19:36.905Z,21.85
2019-04-06T21:22:04.368Z,22.87
2019-04-06T21:24:31.830Z,23.15
2019-04-06T21:26:59.695Z,24.00
2019-04-06T21:29:27.164Z,22.02
2019-04-06T21:31:55.213Z,22.50
2019-04-06T21:34:22.717Z,23.77
2019-04-06T21:36:51.069Z,23.10
2019-04-06T21:39:18.638Z,22.58
2019-04-06T21:41:46.063Z,23.55
2019-04-06T21:44:13.892Z,23.62
2019-04-06T21:46:41.946Z,22.67
2019-04-06T21:49:09.435Z,22.30
2019-04-06T21:51:36.892Z,24.25
2019-04-06T21:54:04.328Z,24.45
2019-04-06T21:56:31.910Z,26.17
2019-04-06T21:58:59.981Z,26.68
2019-04-06T22:01:28.597Z,26.70
2019-04-06T22:03:56.040Z,25.48
2019-04-06T22:06:25.457Z,25.37
2019-04-06T22:08:52.709Z,25.50
2019-04-06T22:11:20.324Z,25.95
2019-04-06T22:13:47.821Z,27.40
2019-04-06T22:16:15.291Z,28.25
2019-04-06T22:18:43.077Z,26.10
2019-04-06T22:21:10.616Z,24.72
2019-04-06T22:23:42.343Z,25.20
2019-04-06T22:26:07.345Z,23.87
2019-04-06T22:28:35.052Z,25.68
2019-04-06T22:31:02.640Z,25.45
2019-04-06T22:33:30.067Z,24.57
2019-04-06T22:35:57.518Z,24.77
2019-04-06T22:38:25.595Z,25.12
2019-04-06T22:40:53.047Z,24.65
2019-04-06T22:43:20.481Z,23.98
2019-04-06T22:45:48.268Z,24.07
2019-04-06T22:48:15.682Z,22.65
2019-04-06T22:50:43.156Z,23.55
2019-04-06T22:53:10.613Z,23.45
2019-04-06T22:55:38.996Z,23.25
2019-04-06T22:58:06.595Z,25.68
2019-04-06T23:00:39.914Z,23.40
2019-04-06T23:03:26.381Z,22.85
2019-04-06T23:06:17.974Z,23.67
2019-04-06T23:08:45.762Z,26.20
2019-04-06T23:11:13.724Z,24.65
2019-04-06T23:13:41.258Z,24.93
2019-04-06T23:16:08.969Z,24.80
2019-04-06T23:18:36.711Z,23.85
2019-04-06T23:21:04.134Z,23.25
2019-04-06T23:23:31.550Z,23.90
2019-04-06T23:25:59.051Z,23.50
2019-04-06T23:28:26.488Z,25.12
2019-04-06T23:30:53.927Z,23.17
2019-04-06T23:33:22.099Z,23.43
2019-04-06T23:35:50.663Z,23.22
2019-04-06T23:38:18.217Z,25.52
2019-04-06T23:40:45.654Z,25.43
2019-04-06T23:43:13.319Z,23.47
2019-04-06T23:45:41.135Z,25.55
2019-04-06T23:48:08.586Z,25.33
2019-04-06T23:50:36.695Z,24.33
2019-04-06T23:53:04.269Z,24.43
2019-04-06T23:55:31.858Z,23.53
2019-04-06T23:57:59.274Z,23.60
